createdAt,value
2022-08-25T00:01:44.393Z,21.14
2022-08-25T00:04:15.361Z,21.18
2022-08-25T00:06:44.057Z,21.19
2022-08-25T00:09:13.708Z,21.28
2022-08-25T00:11:42.358Z,21.28
2022-08-25T00:14:13.848Z,21.27
2022-08-25T00:16:42.230Z,21.28
2022-08-25T00:19:14.485Z,21.15
2022-08-25T00:21:43.394Z,21.26
2022-08-25T00:24:12.011Z,21.21
2022-08-25T00:26:42.334Z,21.16
2022-08-25T00:29:10.832Z,21.27
2022-08-25T00:31:39.413Z,21.31
2022-08-25T00:34:10.116Z,21.17
2022-08-25T00:36:38.966Z,21.15
2022-08-25T00:39:08.371Z,21.21
2022-08-25T00:41:37.297Z,21.17
2022-08-25T00:44:07.518Z,21.22
2022-08-25T00:46:47.761Z,21.07
2022-08-25T00:49:24.839Z,20.80
2022-08-25T00:52:00.213Z,20.62
2022-08-25T00:54:31.907Z,20.61
2022-08-25T00:57:00.556Z,20.84
2022-08-25T00:59:28.849Z,20.72
2022-08-25T01:01:57.666Z,20.93
2022-08-25T01:04:26.312Z,20.73
2022-08-25T01:06:55.837Z,20.85
2022-08-25T01:09:24.346Z,20.91
2022-08-25T01:11:53.186Z,20.74
2022-08-25T01:14:21.579Z,20.79
2022-08-25T01:16:51.112Z,20.67
2022-08-25T01:19:22.433Z,20.62
2022-08-25T01:21:51.552Z,20.72
2022-08-25T01:24:31.662Z,20.68
2022-08-25T01:27:00.439Z,20.66
2022-08-25T01:29:29.534Z,20.77
2022-08-25T01:32:00.156Z,20.67
2022-08-25T01:34:30.422Z,20.72
2022-08-25T01:36:59.350Z,20.76
2022-08-25T01:39:28.687Z,20.83
2022-08-25T01:42:03.185Z,20.57
2022-08-25T01:44:32.350Z,20.74
2022-08-25T01:47:00.770Z,20.70
2022-08-25T01:49:29.363Z,20.77
2022-08-25T01:52:01.942Z,20.84
2022-08-25T01:54:30.240Z,20.96
2022-08-25T01:56:59.321Z,20.72
2022-08-25T01:59:27.775Z,20.74
2022-08-25T02:01:59.936Z,20.77
2022-08-25T02:04:32.500Z,20.95
2022-08-25T02:07:02.728Z,20.93
2022-08-25T02:09:31.058Z,20.98
2022-08-25T02:11:59.771Z,20.91
2022-08-25T02:14:29.200Z,20.83
2022-08-25T02:16:57.689Z,20.76
2022-08-25T02:19:26.841Z,20.30
2022-08-25T02:21:55.187Z,20.60
2022-08-25T02:24:23.496Z,20.33
2022-08-25T02:26:51.909Z,20.39
2022-08-25T02:29:20.256Z,20.60
2022-08-25T02:31:48.869Z,20.57
2022-08-25T02:34:17.180Z,20.60
2022-08-25T02:36:45.533Z,20.52
2022-08-25T02:39:14.139Z,20.50
2022-08-25T02:41:42.786Z,20.59
2022-08-25T02:44:11.260Z,20.64
2022-08-25T02:46:39.581Z,20.68
2022-08-25T02:49:08.076Z,20.69
2022-08-25T02:51:36.967Z,20.67
2022-08-25T02:54:05.699Z,20.43
2022-08-25T02:56:34.146Z,20.59
2022-08-25T02:59:03.110Z,20.55
2022-08-25T03:01:32.965Z,20.60
2022-08-25T03:04:02.300Z,20.59
2022-08-25T03:06:30.668Z,20.48
2022-08-25T03:08:59.288Z,20.53
2022-08-25T03:11:27.709Z,20.42
2022-08-25T03:13:56.707Z,20.46
2022-08-25T03:16:27.875Z,20.38
2022-08-25T03:18:57.086Z,20.42
2022-08-25T03:21:26.873Z,20.33
2022-08-25T03:23:55.546Z,20.36
2022-08-25T03:26:42.661Z,20.06
2022-08-25T03:29:11.267Z,20.14
2022-08-25T03:31:39.901Z,20.14
2022-08-25T03:34:08.249Z,20.12
2022-08-25T03:36:36.645Z,20.24
2022-08-25T03:39:05.585Z,20.17
2022-08-25T03:41:34.396Z,20.20
2022-08-25T03:44:04.256Z,20.02
2022-08-25T03:46:35.101Z,19.92
2022-08-25T03:49:04.189Z,20.14
2022-08-25T03:51:37.223Z,20.18
2022-08-25T03:54:05.874Z,20.21
2022-08-25T03:56:34.567Z,19.98
2022-08-25T03:59:02.937Z,20.13
2022-08-25T04:01:31.264Z,20.15
2022-08-25T04:03:59.849Z,20.06
2022-08-25T04:06:28.165Z,20.03
2022-08-25T04:08:58.404Z,20.13
2022-08-25T04:11:27.842Z,20.15
2022-08-25T04:13:58.044Z,20.07
2022-08-25T04:16:30.984Z,19.99
2022-08-25T04:19:00.700Z,20.06
2022-08-25T04:21:29.434Z,20.15
2022-08-25T04:23:57.859Z,19.92
2022-08-25T04:26:28.820Z,19.63
2022-08-25T04:28:57.899Z,19.84
2022-08-25T04:31:26.794Z,19.69
2022-08-25T04:33:55.269Z,20.05
2022-08-25T04:36:23.531Z,20.13
2022-08-25T04:38:51.811Z,20.09
2022-08-25T04:41:21.349Z,20.31
2022-08-25T04:43:50.260Z,20.21
2022-08-25T04:46:20.496Z,20.17
2022-08-25T04:48:50.106Z,20.26
2022-08-25T04:51:24.280Z,20.27
2022-08-25T04:53:52.959Z,20.36
2022-08-25T04:56:25.360Z,20.46
2022-08-25T04:58:54.348Z,20.51
2022-08-25T05:01:24.559Z,20.60
2022-08-25T05:03:59.680Z,20.50
2022-08-25T05:06:29.199Z,20.38
2022-08-25T05:08:58.522Z,20.36
2022-08-25T05:11:26.962Z,20.35
2022-08-25T05:13:56.465Z,20.22
2022-08-25T05:16:26.183Z,20.49
2022-08-25T05:18:54.970Z,20.80
2022-08-25T05:21:25.210Z,20.61
2022-08-25T05:24:00.347Z,20.69
2022-08-25T05:26:31.074Z,20.84
2022-08-25T05:29:01.102Z,20.96
2022-08-25T05:31:29.759Z,20.80
2022-08-25T05:33:58.613Z,20.90
2022-08-25T05:36:28.053Z,20.97
2022-08-25T05:38:56.380Z,20.95
2022-08-25T05:41:27.949Z,21.08
2022-08-25T05:43:56.541Z,20.58
2022-08-25T05:46:25.013Z,20.93
2022-08-25T05:48:54.035Z,20.89
2022-08-25T05:51:22.333Z,20.84
2022-08-25T05:53:51.567Z,20.90
2022-08-25T05:56:20.296Z,21.08
2022-08-25T05:58:48.911Z,21.43
2022-08-25T06:01:46.455Z,21.38
2022-08-25T06:04:16.915Z,21.55
2022-08-25T06:06:45.254Z,21.41
2022-08-25T06:09:14.519Z,21.34
2022-08-25T06:11:43.315Z,21.64
2022-08-25T06:14:12.290Z,21.82
2022-08-25T06:16:41.134Z,21.92
2022-08-25T06:19:10.334Z,21.82
2022-08-25T06:21:39.899Z,21.98
2022-08-25T06:24:15.163Z,22.10
2022-08-25T06:26:44.474Z,22.03
2022-08-25T06:29:14.364Z,22.54
2022-08-25T06:31:43.145Z,22.45
2022-08-25T06:34:12.033Z,22.66
2022-08-25T06:36:40.711Z,22.70
2022-08-25T06:39:10.626Z,22.71
2022-08-25T06:41:39.432Z,22.86
2022-08-25T06:44:08.355Z,23.06
2022-08-25T06:46:37.278Z,23.23
2022-08-25T06:49:07.196Z,22.79
2022-08-25T06:51:38.533Z,23.27
2022-08-25T06:54:07.453Z,23.18
2022-08-25T06:56:36.557Z,23.14
2022-08-25T06:59:06.602Z,23.22
2022-08-25T07:01:35.239Z,23.26
2022-08-25T07:04:07.560Z,23.01
2022-08-25T07:06:38.934Z,23.38
2022-08-25T07:09:08.490Z,23.59
2022-08-25T07:11:40.035Z,23.70
2022-08-25T07:14:09.755Z,23.28
2022-08-25T07:16:38.524Z,23.51
2022-08-25T07:19:09.541Z,23.59
2022-08-25T07:21:45.767Z,23.75
2022-08-25T07:24:14.577Z,23.87
2022-08-25T07:26:44.319Z,23.59
2022-08-25T07:29:31.656Z,23.46
2022-08-25T07:32:02.067Z,23.77
2022-08-25T07:34:52.367Z,23.91
2022-08-25T07:40:12.881Z,23.84
2022-08-25T07:42:42.396Z,23.81
2022-08-25T07:45:12.847Z,24.00
2022-08-25T07:47:41.375Z,24.09
2022-08-25T07:50:12.987Z,24.05
2022-08-25T07:52:44.959Z,24.36
2022-08-25T07:55:23.251Z,24.48
2022-08-25T07:58:01.903Z,24.41
2022-08-25T08:00:32.789Z,24.23
2022-08-25T08:03:01.733Z,24.33
2022-08-25T08:05:32.339Z,24.24
2022-08-25T08:08:01.196Z,24.54
2022-08-25T08:13:18.805Z,24.58
2022-08-25T08:15:48.076Z,24.31
2022-08-25T08:18:17.205Z,24.68
2022-08-25T08:20:48.246Z,24.83
2022-08-25T08:23:17.540Z,24.73
2022-08-25T08:25:46.319Z,24.79
2022-08-25T08:28:14.719Z,25.16
2022-08-25T08:30:53.555Z,25.32
2022-08-25T08:33:23.038Z,25.25
2022-08-25T08:35:59.162Z,24.83
2022-08-25T08:38:28.090Z,24.71
2022-08-25T08:41:27.070Z,23.36
2022-08-25T08:44:01.739Z,23.63
2022-08-25T08:46:37.097Z,23.31
2022-08-25T08:49:18.009Z,23.11
2022-08-25T08:51:54.211Z,22.96
2022-08-25T08:54:26.535Z,23.01
2022-08-25T08:57:03.625Z,22.96
2022-08-25T08:59:42.300Z,22.95
2022-08-25T09:02:16.029Z,23.02
2022-08-25T09:05:08.150Z,23.13
2022-08-25T09:07:54.862Z,23.32
2022-08-25T09:10:24.844Z,23.35
2022-08-25T09:13:05.759Z,23.25
2022-08-25T09:16:38.310Z,23.17
2022-08-25T09:19:24.495Z,23.28
2022-08-25T09:22:01.864Z,23.17
2022-08-25T09:24:48.824Z,23.17
2022-08-25T09:27:19.449Z,23.27
2022-08-25T09:30:00.660Z,23.14
2022-08-25T09:32:31.535Z,23.04
2022-08-25T09:35:00.511Z,22.98
2022-08-25T09:37:29.367Z,23.15
2022-08-25T09:39:57.820Z,23.26
2022-08-25T09:42:48.194Z,23.49
2022-08-25T09:45:39.926Z,23.47
2022-08-25T09:48:39.729Z,23.49
2022-08-25T09:51:25.428Z,23.66
2022-08-25T09:53:58.910Z,23.48
2022-08-25T09:56:29.506Z,23.24
2022-08-25T09:59:18.731Z,23.35
2022-08-25T10:01:57.464Z,23.34
2022-08-25T10:04:40.092Z,23.49
2022-08-25T10:07:32.536Z,23.66
2022-08-25T10:10:10.032Z,23.73
2022-08-25T10:12:44.103Z,23.58
2022-08-25T10:15:30.113Z,23.59
2022-08-25T10:18:18.678Z,23.45
2022-08-25T10:21:01.236Z,23.76
2022-08-25T10:23:30.692Z,23.59
2022-08-25T10:26:04.510Z,23.71
2022-08-25T10:28:52.625Z,23.80
2022-08-25T10:31:36.671Z,23.70
2022-08-25T10:34:20.067Z,23.67
2022-08-25T10:36:57.827Z,23.72
2022-08-25T10:39:40.687Z,23.81
2022-08-25T10:42:13.363Z,23.73
2022-08-25T10:45:32.737Z,23.80
2022-08-25T10:48:06.871Z,23.95
2022-08-25T10:50:49.016Z,23.97
2022-08-25T10:53:46.421Z,24.11
2022-08-25T10:56:34.093Z,24.25
2022-08-25T10:59:32.531Z,24.30
2022-08-25T11:02:12.780Z,23.94
2022-08-25T11:05:24.730Z,24.03
2022-08-25T11:08:18.216Z,24.07
2022-08-25T11:10:50.546Z,24.06
2022-08-25T11:13:25.797Z,24.12
2022-08-25T11:16:17.144Z,23.90
2022-08-25T11:18:54.054Z,23.88
2022-08-25T11:21:31.838Z,24.27
2022-08-25T11:24:36.207Z,24.49
2022-08-25T11:27:07.267Z,23.84
2022-08-25T11:29:37.773Z,23.96
2022-08-25T11:32:11.048Z,23.99
2022-08-25T11:34:46.057Z,23.90
2022-08-25T11:37:21.914Z,23.87
2022-08-25T11:40:13.432Z,24.03
2022-08-25T11:43:31.445Z,24.07
2022-08-25T11:46:10.076Z,23.93
2022-08-25T11:48:41.440Z,23.86
2022-08-25T11:51:30.900Z,23.98
2022-08-25T11:54:39.400Z,24.02
2022-08-25T11:57:19.280Z,23.94
2022-08-25T11:59:51.824Z,24.02
2022-08-25T12:02:43.662Z,23.90
2022-08-25T12:05:24.852Z,23.94
2022-08-25T12:08:11.814Z,24.02
2022-08-25T12:11:00.524Z,24.06
2022-08-25T12:13:48.597Z,23.98
2022-08-25T12:16:36.002Z,23.97
2022-08-25T12:19:35.060Z,23.93
2022-08-25T12:22:05.908Z,23.89
2022-08-25T12:24:47.515Z,23.86
2022-08-25T12:27:29.555Z,24.00
2022-08-25T12:30:43.868Z,23.82
2022-08-25T12:33:50.736Z,23.74
2022-08-25T12:36:31.743Z,23.85
2022-08-25T12:39:24.424Z,23.84
2022-08-25T12:44:45.300Z,23.83
2022-08-25T12:47:32.155Z,23.64
2022-08-25T12:50:34.559Z,23.70
2022-08-25T12:53:34.110Z,23.79
2022-08-25T12:56:09.186Z,23.67
2022-08-25T12:59:04.328Z,23.73
2022-08-25T13:01:36.848Z,23.70
2022-08-25T13:04:18.544Z,23.71
2022-08-25T13:07:25.428Z,23.71
2022-08-25T13:10:32.668Z,23.53
2022-08-25T13:13:01.723Z,23.52
2022-08-25T13:15:39.145Z,23.59
2022-08-25T13:18:26.310Z,23.64
2022-08-25T13:21:14.341Z,23.75
2022-08-25T13:23:45.933Z,23.64
2022-08-25T13:26:26.660Z,23.66
2022-08-25T13:28:59.411Z,23.54
2022-08-25T13:31:29.966Z,23.71
2022-08-25T13:34:06.574Z,23.67
2022-08-25T13:37:04.039Z,23.69
2022-08-25T13:39:54.990Z,23.61
2022-08-25T13:42:27.426Z,23.60
2022-08-25T13:44:57.306Z,23.44
2022-08-25T13:47:43.373Z,23.43
2022-08-25T13:50:22.888Z,23.50
2022-08-25T13:53:04.209Z,23.46
2022-08-25T13:55:50.783Z,23.39
2022-08-25T13:58:32.500Z,23.53
2022-08-25T14:01:23.327Z,23.65
2022-08-25T14:04:50.765Z,23.64
2022-08-25T14:07:21.063Z,23.72
2022-08-25T14:09:54.027Z,23.82
2022-08-25T14:12:36.188Z,23.98
2022-08-25T14:15:18.959Z,23.90
2022-08-25T14:17:50.140Z,23.95
2022-08-25T14:20:29.306Z,23.91
2022-08-25T14:23:00.350Z,23.87
2022-08-25T14:25:31.688Z,23.97
2022-08-25T14:28:06.604Z,24.00
2022-08-25T14:30:37.128Z,23.95
2022-08-25T14:33:06.212Z,23.88
2022-08-25T14:35:35.223Z,23.93
2022-08-25T14:38:10.229Z,24.01
2022-08-25T14:40:39.914Z,23.90
2022-08-25T14:43:09.929Z,23.84
2022-08-25T14:45:42.977Z,23.91
2022-08-25T14:48:16.379Z,24.07
2022-08-25T14:50:46.408Z,24.02
2022-08-25T14:53:14.759Z,24.01
2022-08-25T14:55:43.154Z,24.07
2022-08-25T14:58:13.047Z,24.09
2022-08-25T15:00:43.484Z,23.98
2022-08-25T15:03:15.121Z,24.06
2022-08-25T15:05:43.438Z,24.09
2022-08-25T15:08:33.214Z,24.12
2022-08-25T15:11:02.027Z,24.12
2022-08-25T15:13:37.364Z,24.12
2022-08-25T15:16:07.069Z,24.10
2022-08-25T15:18:35.980Z,23.97
2022-08-25T15:21:05.857Z,23.96
2022-08-25T15:23:34.253Z,24.01
2022-08-25T15:26:03.996Z,24.01
2022-08-25T15:28:33.817Z,24.02
2022-08-25T15:31:03.168Z,24.07
2022-08-25T15:33:32.213Z,24.22
2022-08-25T15:36:01.157Z,24.20
2022-08-25T15:38:31.168Z,24.22
2022-08-25T15:41:00.358Z,24.15
2022-08-25T15:43:28.814Z,24.01
2022-08-25T15:45:58.840Z,24.04
2022-08-25T15:48:28.176Z,23.99
2022-08-25T15:50:57.121Z,23.97
2022-08-25T15:53:26.608Z,24.16
2022-08-25T15:55:55.139Z,24.10
2022-08-25T15:58:25.134Z,23.95
2022-08-25T16:00:56.290Z,23.87
2022-08-25T16:03:27.649Z,23.81
2022-08-25T16:05:56.926Z,23.78
2022-08-25T16:08:25.234Z,23.71
2022-08-25T16:10:53.787Z,23.66
2022-08-25T16:13:23.889Z,23.74
2022-08-25T16:15:56.003Z,23.61
2022-08-25T16:18:24.366Z,23.56
2022-08-25T16:20:52.891Z,23.50
2022-08-25T16:23:21.377Z,23.40
2022-08-25T16:25:54.067Z,23.36
2022-08-25T16:28:25.217Z,23.32
2022-08-25T16:30:54.693Z,23.24
2022-08-25T16:33:23.722Z,23.20
2022-08-25T16:35:54.649Z,23.19
2022-08-25T16:38:23.064Z,23.13
2022-08-25T16:40:51.868Z,23.08
2022-08-25T16:43:22.489Z,23.06
2022-08-25T16:46:08.275Z,23.08
2022-08-25T16:48:38.021Z,22.98
2022-08-25T16:51:11.874Z,22.86
2022-08-25T16:53:59.534Z,22.81
2022-08-25T16:56:28.641Z,22.74
2022-08-25T16:58:59.777Z,22.71
2022-08-25T17:01:30.608Z,22.62
2022-08-25T17:04:00.069Z,22.52
2022-08-25T17:06:29.312Z,22.48
2022-08-25T17:08:57.700Z,22.44
2022-08-25T17:11:28.929Z,22.32
2022-08-25T17:14:01.208Z,22.30
2022-08-25T17:16:35.663Z,22.18
2022-08-25T17:19:11.681Z,22.11
2022-08-25T17:21:45.107Z,22.06
2022-08-25T17:24:13.948Z,21.93
2022-08-25T17:26:42.503Z,21.95
2022-08-25T17:29:12.216Z,21.84
2022-08-25T17:31:40.872Z,21.80
2022-08-25T17:34:10.959Z,21.75
2022-08-25T17:36:40.582Z,21.67
2022-08-25T17:39:10.196Z,21.60
2022-08-25T17:41:40.621Z,21.54
2022-08-25T17:44:12.696Z,21.44
2022-08-25T17:46:47.328Z,21.38
2022-08-25T17:49:22.558Z,21.34
2022-08-25T17:51:52.584Z,21.24
2022-08-25T17:54:24.588Z,21.20
2022-08-25T17:56:54.677Z,21.13
2022-08-25T17:59:24.708Z,21.07
2022-08-25T18:01:58.852Z,21.06
2022-08-25T18:04:29.623Z,21.07
2022-08-25T18:07:02.039Z,20.94
2022-08-25T18:09:33.999Z,21.00
2022-08-25T18:12:06.525Z,20.97
2022-08-25T18:14:36.414Z,20.99
2022-08-25T18:17:05.933Z,21.01
2022-08-25T18:19:36.622Z,20.96
2022-08-25T18:22:06.994Z,20.86
2022-08-25T18:24:36.070Z,20.79
2022-08-25T18:27:04.689Z,20.82
2022-08-25T18:29:40.542Z,20.68
2022-08-25T18:32:12.451Z,20.58
2022-08-25T18:34:44.439Z,20.71
2022-08-25T18:37:34.064Z,20.68
2022-08-25T18:40:25.458Z,20.66
2022-08-25T18:43:09.468Z,20.61
2022-08-25T18:45:51.895Z,20.60
2022-08-25T18:48:26.561Z,20.49
2022-08-25T18:50:56.433Z,20.49
2022-08-25T18:53:37.595Z,20.53
2022-08-25T18:56:26.835Z,20.52
2022-08-25T18:59:01.425Z,20.58
2022-08-25T19:01:30.695Z,20.55
2022-08-25T19:03:59.568Z,20.47
2022-08-25T19:06:30.190Z,20.42
2022-08-25T19:09:01.184Z,20.38
2022-08-25T19:11:31.019Z,20.34
2022-08-25T19:14:04.550Z,20.32
2022-08-25T19:16:53.796Z,20.48
2022-08-25T19:19:31.578Z,20.37
2022-08-25T19:22:10.700Z,20.25
2022-08-25T19:24:57.710Z,20.22
2022-08-25T19:27:27.968Z,20.15
2022-08-25T19:30:03.001Z,20.10
2022-08-25T19:32:39.106Z,20.19
2022-08-25T19:35:32.028Z,20.10
2022-08-25T19:38:01.871Z,20.22
2022-08-25T19:40:36.538Z,20.11
2022-08-25T19:43:07.493Z,20.11
2022-08-25T19:45:47.927Z,20.06
2022-08-25T19:48:17.190Z,19.97
2022-08-25T19:50:46.317Z,20.03
2022-08-25T19:53:15.387Z,19.94
2022-08-25T19:55:43.769Z,20.09
2022-08-25T19:58:14.048Z,19.95
2022-08-25T20:00:48.303Z,19.97
2022-08-25T20:03:20.823Z,19.96
2022-08-25T20:05:49.739Z,19.82
2022-08-25T20:08:29.792Z,19.80
2022-08-25T20:10:59.691Z,19.94
2022-08-25T20:13:29.736Z,20.02
2022-08-25T20:15:58.792Z,19.87
2022-08-25T20:18:28.058Z,19.81
2022-08-25T20:20:56.716Z,19.83
2022-08-25T20:23:45.046Z,19.81
2022-08-25T20:26:13.420Z,19.70
2022-08-25T20:28:42.137Z,19.57
2022-08-25T20:31:13.360Z,19.60
2022-08-25T20:33:42.795Z,19.58
2022-08-25T20:36:15.146Z,19.60
2022-08-25T20:38:46.764Z,19.62
2022-08-25T20:41:16.281Z,19.46
2022-08-25T20:43:46.752Z,19.47
2022-08-25T20:46:15.159Z,19.63
2022-08-25T20:48:45.333Z,19.27
2022-08-25T20:51:14.587Z,19.35
2022-08-25T20:53:46.983Z,19.23
2022-08-25T20:56:16.164Z,19.33
2022-08-25T20:58:45.082Z,19.22
2022-08-25T21:01:23.044Z,19.12
2022-08-25T21:03:51.785Z,19.07
2022-08-25T21:06:20.151Z,19.18
2022-08-25T21:08:49.241Z,19.02
2022-08-25T21:11:18.352Z,19.12
2022-08-25T21:13:47.518Z,19.06
2022-08-25T21:16:18.027Z,19.03
2022-08-25T21:18:48.286Z,19.06
2022-08-25T21:21:16.896Z,18.69
2022-08-25T21:23:48.498Z,18.85
2022-08-25T21:26:28.106Z,18.97
2022-08-25T21:29:00.113Z,19.03
2022-08-25T21:31:28.839Z,18.84
2022-08-25T21:33:58.083Z,18.89
2022-08-25T21:36:26.845Z,18.68
2022-08-25T21:38:55.563Z,18.56
2022-08-25T21:41:25.803Z,18.69
2022-08-25T21:43:54.178Z,18.71
2022-08-25T21:46:23.975Z,18.65
2022-08-25T21:48:53.439Z,18.47
2022-08-25T21:51:27.143Z,18.39
2022-08-25T21:54:09.300Z,18.23
2022-08-25T21:56:41.719Z,18.20
2022-08-25T21:59:17.385Z,18.29
2022-08-25T22:01:45.842Z,18.24
2022-08-25T22:04:14.942Z,18.20
2022-08-25T22:06:44.443Z,18.18
2022-08-25T22:09:13.102Z,17.96
2022-08-25T22:11:42.851Z,18.00
2022-08-25T22:14:12.780Z,18.18
2022-08-25T22:16:42.763Z,17.98
2022-08-25T22:19:12.770Z,18.15
2022-08-25T22:21:42.156Z,17.93
2022-08-25T22:24:11.288Z,18.14
2022-08-25T22:26:39.938Z,17.93
2022-08-25T22:29:08.354Z,17.83
2022-08-25T22:31:37.317Z,17.86
2022-08-25T22:34:06.251Z,17.92
2022-08-25T22:36:35.753Z,17.88
2022-08-25T22:39:06.659Z,17.88
2022-08-25T22:41:35.310Z,17.65
2022-08-25T22:44:09.931Z,17.72
2022-08-25T22:46:38.348Z,17.85
2022-08-25T22:49:06.648Z,17.60
2022-08-25T22:51:36.789Z,17.81
2022-08-25T22:54:06.008Z,17.60
2022-08-25T22:56:39.759Z,17.54
2022-08-25T22:59:10.643Z,17.53
2022-08-25T23:01:39.606Z,17.53
2022-08-25T23:04:09.396Z,17.58
2022-08-25T23:06:39.265Z,17.45
2022-08-25T23:09:08.631Z,17.39
2022-08-25T23:11:38.741Z,17.42
2022-08-25T23:14:10.451Z,17.38
2022-08-25T23:16:41.759Z,17.46
2022-08-25T23:19:13.800Z,17.38
2022-08-25T23:22:01.976Z,17.33
2022-08-25T23:24:31.045Z,17.54
2022-08-25T23:26:59.813Z,17.51
2022-08-25T23:29:29.399Z,17.39
2022-08-25T23:31:59.163Z,17.58
2022-08-25T23:34:28.703Z,17.58
2022-08-25T23:36:57.196Z,17.51
2022-08-25T23:39:25.914Z,17.55
2022-08-25T23:41:54.315Z,17.48
2022-08-25T23:44:25.575Z,17.33
2022-08-25T23:46:54.199Z,17.41
2022-08-25T23:49:23.380Z,17.25
2022-08-25T23:51:52.944Z,17.10
2022-08-25T23:54:21.846Z,17.10
2022-08-25T23:56:59.773Z,17.19
2022-08-25T23:59:28.149Z,17.15
